Time;durP1;ratioP1;P1;durP2;ratioP2;P2;SDS_P1;SDS_P2;PMS_P1;PMS_P2;Temp;Humidity;BMP_temperature;BMP_pressure;BME280_temperature;BME280_humidity;BME280_pressure;Samples;Min_cycle;Max_cycle;Signal;HPM_P1;HPM_P2
2024/01/15 00:00:13;;;;;;;;;;;-0.70;99.90;;;;;;5077272;28;20396;-85
2024/01/15 00:02:40;;;;;;;;;;;-0.70;99.90;;;;;;5078255;28;19943;-85
2024/01/15 00:05:07;;;;;;;;;;;-0.70;99.90;;;;;;5071357;28;20408;-85
2024/01/15 00:07:34;;;;;;;;;;;-0.70;99.90;;;;;;5071660;28;19932;-85
2024/01/15 00:10:01;;;;;;;;;;;-0.70;99.90;;;;;;5072137;28;20293;-85
2024/01/15 00:12:28;;;;;;;;;;;-0.70;99.90;;;;;;5072108;28;19924;-85
2024/01/15 00:14:55;;;;;;;;;;;-0.70;99.90;;;;;;5083515;28;19924;-85
2024/01/15 00:17:22;;;;;;;;;;;-0.70;99.90;;;;;;5082968;28;19932;-85
2024/01/15 00:19:49;;;;;;;;;;;-0.70;99.90;;;;;;5082121;28;19928;-86
2024/01/15 00:22:16;;;;;;;;;;;-0.70;99.90;;;;;;5091270;28;19931;-86
2024/01/15 00:24:43;;;;;;;;;;;-0.70;99.90;;;;;;5071706;28;19931;-85
2024/01/15 00:27:10;;;;;;;;;;;-0.70;99.90;;;;;;5078801;28;19932;-86
2024/01/15 00:29:36;;;;;;;;;;;-0.70;99.90;;;;;;5055756;28;19938;-85
2024/01/15 00:32:04;;;;;;;;;;;-0.60;99.90;;;;;;5073983;28;19925;-85
2024/01/15 00:34:31;;;;;;;;;;;-0.70;99.90;;;;;;5068826;28;19944;-85
2024/01/15 00:36:58;;;;;;;;;;;-0.70;99.90;;;;;;5068816;28;19932;-85
2024/01/15 00:39:25;;;;;;;;;;;-0.60;99.90;;;;;;5070199;28;20331;-85
2024/01/15 00:41:52;;;;;;;;;;;-0.60;99.90;;;;;;5072776;28;20380;-86
2024/01/15 00:44:19;;;;;;;;;;;-0.60;99.90;;;;;;5075603;28;19928;-85
2024/01/15 00:46:46;;;;;;;;;;;-0.60;99.90;;;;;;5063112;28;19931;-85
2024/01/15 00:49:14;;;;;;;;;;;-0.60;99.90;;;;;;5072011;28;19978;-85
2024/01/15 00:51:41;;;;;;;;;;;-0.60;99.90;;;;;;5071014;28;19925;-85
2024/01/15 00:54:08;;;;;;;;;;;-0.60;99.90;;;;;;5071541;28;19929;-85
2024/01/15 00:56:35;;;;;;;;;;;-0.60;99.90;;;;;;5071280;28;20378;-85
2024/01/15 00:59:02;;;;;;;;;;;-0.50;99.90;;;;;;5065759;28;20001;-85
2024/01/15 01:01:29;;;;;;;;;;;-0.50;99.90;;;;;;5068100;28;20039;-85
2024/01/15 01:03:56;;;;;;;;;;;-0.50;99.90;;;;;;5071133;28;19928;-85
2024/01/15 01:06:24;;;;;;;;;;;-0.50;99.90;;;;;;5065956;28;19936;-85
2024/01/15 01:08:50;;;;;;;;;;;-0.50;99.90;;;;;;5068417;28;19928;-86
2024/01/15 01:11:17;;;;;;;;;;;-0.50;99.90;;;;;;5072421;28;19939;-85
2024/01/15 01:13:44;;;;;;;;;;;-0.50;99.90;;;;;;5072739;28;19935;-85
2024/01/15 01:16:11;;;;;;;;;;;-0.50;99.90;;;;;;5047250;28;20309;-85
2024/01/15 01:18:38;;;;;;;;;;;-0.50;99.90;;;;;;5052114;28;19943;-85
2024/01/15 01:21:05;;;;;;;;;;;-0.50;99.90;;;;;;5071315;28;20329;-85
2024/01/15 01:23:32;;;;;;;;;;;-0.50;99.90;;;;;;5051415;28;19935;-85
2024/01/15 01:25:59;;;;;;;;;;;-0.40;99.90;;;;;;5067968;28;19997;-85
2024/01/15 01:28:26;;;;;;;;;;;-0.40;99.90;;;;;;5063529;28;19927;-85
2024/01/15 01:30:52;;;;;;;;;;;-0.40;99.90;;;;;;5072748;28;19955;-84
2024/01/15 01:33:19;;;;;;;;;;;-0.40;99.90;;;;;;5053771;28;19932;-85
2024/01/15 01:35:47;;;;;;;;;;;-0.30;99.90;;;;;;5082439;28;19928;-85
2024/01/15 01:38:14;;;;;;;;;;;-0.30;99.90;;;;;;5053411;28;20013;-84
2024/01/15 01:40:41;;;;;;;;;;;-0.30;99.90;;;;;;5073197;28;19936;-85
2024/01/15 01:43:09;;;;;;;;;;;-0.30;99.90;;;;;;5051124;28;19936;-85
2024/01/15 01:45:36;;;;;;;;;;;-0.30;99.90;;;;;;5068283;28;19929;-82
2024/01/15 01:48:03;;;;;;;;;;;-0.30;99.90;;;;;;5068599;28;19943;-83
2024/01/15 01:50:31;;;;;;;;;;;-0.20;99.90;;;;;;5082434;28;19924;-83
2024/01/15 01:52:59;;;;;;;;;;;-0.20;99.90;;;;;;5053829;28;20386;-83
2024/01/15 01:55:27;;;;;;;;;;;-0.20;99.90;;;;;;5055790;28;20032;-82
2024/01/15 01:57:54;;;;;;;;;;;-0.20;99.90;;;;;;5068830;28;20002;-82
2024/01/15 02:00:22;;;;;;;;;;;-0.20;99.90;;;;;;5072703;28;20051;-82
2024/01/15 02:02:49;;;;;;;;;;;-0.20;99.90;;;;;;5085397;28;20024;-82
2024/01/15 02:05:18;;;;;;;;;;;-0.10;99.90;;;;;;5066978;28;19959;-82
2024/01/15 02:07:45;;;;;;;;;;;-0.20;99.90;;;;;;5065112;28;19935;-82
2024/01/15 02:10:12;;;;;;;;;;;-0.10;99.90;;;;;;5049714;28;19929;-82
2024/01/15 02:12:38;;;;;;;;;;;-0.10;99.90;;;;;;5066997;28;19931;-82
2024/01/15 02:15:06;;;;;;;;;;;-0.10;99.90;;;;;;5071657;28;19966;-82
2024/01/15 02:17:33;;;;;;;;;;;-0.10;99.90;;;;;;5074186;28;19927;-82
2024/01/15 02:19:59;;;;;;;;;;;0.00;99.90;;;;;;5075784;28;19930;-83
2024/01/15 02:22:26;;;;;;;;;;;-0.10;99.90;;;;;;5070693;28;19932;-82
2024/01/15 02:24:53;;;;;;;;;;;0.00;99.90;;;;;;5036146;28;19955;-81
2024/01/15 02:27:20;;;;;;;;;;;0.00;99.90;;;;;;5069054;28;19935;-82
2024/01/15 02:29:48;;;;;;;;;;;0.00;99.90;;;;;;5052523;28;19935;-82
2024/01/15 02:32:14;;;;;;;;;;;0.00;99.90;;;;;;5079111;28;19924;-82
2024/01/15 02:34:41;;;;;;;;;;;0.00;99.90;;;;;;5069437;28;20285;-83
2024/01/15 02:37:08;;;;;;;;;;;0.00;99.90;;;;;;5063629;28;19968;-82
2024/01/15 02:39:35;;;;;;;;;;;0.00;99.90;;;;;;5060569;28;19928;-82
2024/01/15 02:42:02;;;;;;;;;;;0.00;99.90;;;;;;5048844;28;20365;-82
2024/01/15 02:44:29;;;;;;;;;;;0.00;99.90;;;;;;5071328;28;19935;-82
2024/01/15 02:46:56;;;;;;;;;;;0.10;99.90;;;;;;5077317;28;20591;-82
2024/01/15 02:49:22;;;;;;;;;;;0.10;99.90;;;;;;5068613;28;19929;-82
2024/01/15 02:51:49;;;;;;;;;;;0.10;99.90;;;;;;5049622;28;19936;-82
2024/01/15 02:54:16;;;;;;;;;;;0.10;99.90;;;;;;5049707;28;19970;-83
2024/01/15 02:56:44;;;;;;;;;;;0.10;99.90;;;;;;5050332;28;19951;-81
2024/01/15 02:59:10;;;;;;;;;;;0.20;99.90;;;;;;5051726;28;20623;-81
2024/01/15 03:01:37;;;;;;;;;;;0.10;99.90;;;;;;5075999;28;19936;-81
2024/01/15 03:04:04;;;;;;;;;;;0.10;99.90;;;;;;5068179;28;19935;-81
2024/01/15 03:06:31;;;;;;;;;;;0.10;99.90;;;;;;5076508;28;19959;-81
2024/01/15 03:08:58;;;;;;;;;;;0.10;99.90;;;;;;5079588;28;19931;-81
2024/01/15 03:11:25;;;;;;;;;;;0.10;99.90;;;;;;5057247;28;19932;-81
2024/01/15 03:13:52;;;;;;;;;;;0.20;99.90;;;;;;5071762;28;19936;-81
2024/01/15 03:16:19;;;;;;;;;;;0.20;99.90;;;;;;5071448;28;19932;-81
2024/01/15 03:18:46;;;;;;;;;;;0.20;99.90;;;;;;5072994;28;21002;-81
2024/01/15 03:21:13;;;;;;;;;;;0.20;99.90;;;;;;5052703;28;20020;-81
2024/01/15 03:23:40;;;;;;;;;;;0.20;99.90;;;;;;5068060;28;20019;-81
2024/01/15 03:26:07;;;;;;;;;;;0.20;99.90;;;;;;5076789;28;19932;-81
2024/01/15 03:28:34;;;;;;;;;;;0.20;99.90;;;;;;5056203;28;19932;-80
2024/01/15 03:31:01;;;;;;;;;;;0.20;99.90;;;;;;5095090;28;20377;-82
2024/01/15 03:33:28;;;;;;;;;;;0.20;99.90;;;;;;5059615;28;20004;-82
2024/01/15 03:35:55;;;;;;;;;;;0.20;99.90;;;;;;5075450;28;20368;-81
2024/01/15 03:38:22;;;;;;;;;;;0.20;99.90;;;;;;5085650;28;19943;-82
2024/01/15 03:40:49;;;;;;;;;;;0.20;99.90;;;;;;5070832;28;19925;-81
2024/01/15 03:43:16;;;;;;;;;;;0.20;99.90;;;;;;5067632;28;20023;-82
2024/01/15 03:45:43;;;;;;;;;;;0.20;99.90;;;;;;5069114;28;19932;-81
2024/01/15 03:48:10;;;;;;;;;;;0.20;99.90;;;;;;5077243;28;19924;-81
2024/01/15 03:50:37;;;;;;;;;;;0.20;99.90;;;;;;5080024;28;19924;-81
2024/01/15 03:53:04;;;;;;;;;;;0.20;99.90;;;;;;5074153;28;19940;-81
2024/01/15 03:55:32;;;;;;;;;;;0.20;99.90;;;;;;5077267;28;19924;-83
2024/01/15 03:57:59;;;;;;;;;;;0.20;99.90;;;;;;5071565;28;19928;-82
2024/01/15 04:00:25;;;;;;;;;;;0.20;99.90;;;;;;5065759;28;19924;-81
2024/01/15 04:02:53;;;;;;;;;;;0.30;99.90;;;;;;5070384;28;20300;-81
2024/01/15 04:05:20;;;;;;;;;;;0.30;99.90;;;;;;5070330;28;19944;-85
2024/01/15 04:07:47;;;;;;;;;;;0.30;99.90;;;;;;5050988;28;19936;-84
2024/01/15 04:10:14;;;;;;;;;;;0.30;99.90;;;;;;5084822;28;19934;-85
2024/01/15 04:12:41;;;;;;;;;;;0.30;99.90;;;;;;5080304;28;19935;-85
2024/01/15 04:15:08;;;;;;;;;;;0.30;99.90;;;;;;5068955;28;20369;-84
2024/01/15 04:17:35;;;;;;;;;;;0.30;99.90;;;;;;5070661;28;19986;-85
2024/01/15 04:20:02;;;;;;;;;;;0.30;99.90;;;;;;5072746;28;19961;-83
2024/01/15 04:22:29;;;;;;;;;;;0.30;99.90;;;;;;5067304;28;19924;-85
2024/01/15 04:24:56;;;;;;;;;;;0.30;99.90;;;;;;5072681;28;20262;-85
2024/01/15 04:27:23;;;;;;;;;;;0.30;99.90;;;;;;5051702;28;20019;-85
2024/01/15 04:29:50;;;;;;;;;;;0.30;99.90;;;;;;5055038;28;20355;-84
2024/01/15 04:32:17;;;;;;;;;;;0.30;99.90;;;;;;5067474;28;19929;-85
2024/01/15 04:34:43;;;;;;;;;;;0.30;99.90;;;;;;5070303;28;20043;-85
2024/01/15 04:37:11;;;;;;;;;;;0.30;99.90;;;;;;5068564;28;19939;-83
2024/01/15 04:39:38;;;;;;;;;;;0.30;99.90;;;;;;5051224;28;19934;-85
2024/01/15 04:42:04;;;;;;;;;;;0.30;99.90;;;;;;5049864;28;19929;-84
2024/01/15 04:44:31;;;;;;;;;;;0.30;99.90;;;;;;5070781;28;19971;-85
2024/01/15 04:46:58;;;;;;;;;;;0.30;99.90;;;;;;5070613;28;19951;-85
2024/01/15 04:49:29;;;;;;;;;;;0.30;99.90;;;;;;5071524;28;20376;-85
2024/01/15 04:51:56;;;;;;;;;;;0.30;99.90;;;;;;5068671;28;19925;-85
2024/01/15 04:54:23;;;;;;;;;;;0.30;99.90;;;;;;5084299;28;20011;-85
2024/01/15 04:56:50;;;;;;;;;;;0.30;99.90;;;;;;5051850;28;19928;-85
2024/01/15 04:59:16;;;;;;;;;;;0.30;99.90;;;;;;5056376;28;20360;-84
2024/01/15 05:01:43;;;;;;;;;;;0.30;99.90;;;;;;5065915;28;19932;-85
2024/01/15 05:04:10;;;;;;;;;;;0.30;99.90;;;;;;5056127;28;19939;-85
2024/01/15 05:06:37;;;;;;;;;;;0.30;99.90;;;;;;5071227;28;19925;-84
2024/01/15 05:09:04;;;;;;;;;;;0.30;99.90;;;;;;5073914;28;19928;-84
2024/01/15 05:11:31;;;;;;;;;;;0.30;99.90;;;;;;5063410;28;20281;-84
2024/01/15 05:13:58;;;;;;;;;;;0.30;99.90;;;;;;5077923;28;20536;-84
2024/01/15 05:16:25;;;;;;;;;;;0.30;99.90;;;;;;5066224;28;20408;-81
2024/01/15 05:18:52;;;;;;;;;;;0.30;99.90;;;;;;5069501;28;19981;-82
2024/01/15 05:21:19;;;;;;;;;;;0.30;99.90;;;;;;5067868;28;20407;-83
2024/01/15 05:23:45;;;;;;;;;;;0.30;99.90;;;;;;5092460;28;20436;-83
2024/01/15 05:26:12;;;;;;;;;;;0.30;99.90;;;;;;5055567;28;20401;-83
2024/01/15 05:28:42;;;;;;;;;;;0.30;99.90;;;;;;5021766;28;19935;-83
2024/01/15 05:31:10;;;;;;;;;;;0.30;99.90;;;;;;5037090;28;19924;-82
2024/01/15 05:33:37;;;;;;;;;;;0.30;99.90;;;;;;5050718;28;19929;-82
2024/01/15 05:36:04;;;;;;;;;;;0.30;99.90;;;;;;5049151;28;19932;-82
2024/01/15 05:38:31;;;;;;;;;;;0.30;99.90;;;;;;5049041;28;20397;-81
2024/01/15 05:40:58;;;;;;;;;;;0.30;99.90;;;;;;5030036;28;19936;-82
2024/01/15 05:43:25;;;;;;;;;;;0.30;99.90;;;;;;5048649;28;19929;-82
2024/01/15 05:45:52;;;;;;;;;;;0.40;99.90;;;;;;5049049;28;19928;-81
2024/01/15 05:48:19;;;;;;;;;;;0.30;99.90;;;;;;5039937;28;19924;-82
2024/01/15 05:50:46;;;;;;;;;;;0.30;99.90;;;;;;5055674;28;19959;-81
2024/01/15 05:53:13;;;;;;;;;;;0.20;99.90;;;;;;5027301;28;20419;-81
2024/01/15 05:55:40;;;;;;;;;;;0.20;99.90;;;;;;5052435;28;19935;-82
2024/01/15 05:58:07;;;;;;;;;;;0.20;99.90;;;;;;5053233;28;19940;-82
2024/01/15 06:00:35;;;;;;;;;;;0.10;99.90;;;;;;5053169;28;19929;-82
2024/01/15 06:03:02;;;;;;;;;;;0.10;99.90;;;;;;5048704;28;20332;-81
2024/01/15 06:05:29;;;;;;;;;;;0.10;99.90;;;;;;5049563;28;19929;-81
2024/01/15 06:07:56;;;;;;;;;;;0.10;99.90;;;;;;5049493;28;19929;-81
2024/01/15 06:10:23;;;;;;;;;;;0.00;99.90;;;;;;5062072;28;19929;-83
2024/01/15 06:12:50;;;;;;;;;;;0.00;99.90;;;;;;5072172;28;20358;-81
2024/01/15 06:15:17;;;;;;;;;;;0.00;99.90;;;;;;5068715;28;19928;-80
2024/01/15 06:17:44;;;;;;;;;;;-0.10;99.90;;;;;;5050328;28;19968;-81
2024/01/15 06:20:11;;;;;;;;;;;-0.10;99.90;;;;;;5063432;28;20407;-80
2024/01/15 06:22:39;;;;;;;;;;;-0.10;99.90;;;;;;5049703;28;19928;-81
2024/01/15 06:25:08;;;;;;;;;;;-0.10;99.90;;;;;;5047235;28;19936;-81
2024/01/15 06:27:35;;;;;;;;;;;-0.10;99.90;;;;;;5038707;28;19929;-79
2024/01/15 06:30:02;;;;;;;;;;;-0.10;99.90;;;;;;5066021;28;20097;-82
2024/01/15 06:32:31;;;;;;;;;;;-0.20;99.90;;;;;;5047904;28;20225;-79
2024/01/15 06:34:58;;;;;;;;;;;-0.10;99.90;;;;;;5073129;28;20388;-81
2024/01/15 06:37:25;;;;;;;;;;;-0.10;99.90;;;;;;5074271;28;20385;-80
2024/01/15 06:39:52;;;;;;;;;;;-0.10;99.90;;;;;;5071877;28;19935;-80
2024/01/15 06:42:21;;;;;;;;;;;-0.10;99.90;;;;;;5068475;28;19939;-80
2024/01/15 06:44:49;;;;;;;;;;;-0.20;99.90;;;;;;5064932;28;20933;-81
2024/01/15 06:47:17;;;;;;;;;;;-0.10;99.90;;;;;;5070146;28;19936;-81
2024/01/15 06:49:44;;;;;;;;;;;-0.10;99.90;;;;;;5072947;28;19978;-80
2024/01/15 06:52:12;;;;;;;;;;;-0.10;99.90;;;;;;5054301;28;19924;-80
2024/01/15 06:54:39;;;;;;;;;;;-0.10;99.90;;;;;;5049912;28;19936;-79
2024/01/15 06:57:06;;;;;;;;;;;-0.10;99.90;;;;;;5057934;28;20373;-80
2024/01/15 06:59:35;;;;;;;;;;;-0.10;99.90;;;;;;5072934;28;19929;-80
2024/01/15 07:02:02;;;;;;;;;;;-0.10;99.90;;;;;;5075421;28;19939;-80
2024/01/15 07:04:29;;;;;;;;;;;-0.10;99.90;;;;;;5074648;28;20957;-81
2024/01/15 07:06:56;;;;;;;;;;;-0.10;99.90;;;;;;5073566;28;19924;-80
2024/01/15 07:09:23;;;;;;;;;;;-0.10;99.90;;;;;;5086746;28;20453;-81
2024/01/15 07:11:50;;;;;;;;;;;-0.10;99.90;;;;;;5075091;28;19928;-81
2024/01/15 07:14:17;;;;;;;;;;;-0.10;99.90;;;;;;5070825;28;19931;-80
2024/01/15 07:16:44;;;;;;;;;;;-0.10;99.90;;;;;;5050337;28;20479;-80
2024/01/15 07:19:14;;;;;;;;;;;-0.10;99.90;;;;;;5069131;28;19928;-80
2024/01/15 07:21:42;;;;;;;;;;;-0.10;99.90;;;;;;5073708;28;20356;-80
2024/01/15 07:24:10;;;;;;;;;;;-0.10;99.90;;;;;;5073174;28;20013;-81
2024/01/15 07:26:37;;;;;;;;;;;-0.10;99.90;;;;;;5077320;28;19954;-80
2024/01/15 07:29:04;;;;;;;;;;;-0.10;99.90;;;;;;5068978;28;19935;-81
2024/01/15 07:31:32;;;;;;;;;;;-0.10;99.90;;;;;;5072976;28;19924;-81
2024/01/15 07:34:00;;;;;;;;;;;-0.10;99.90;;;;;;5054140;28;19931;-80
2024/01/15 07:36:27;;;;;;;;;;;-0.10;99.90;;;;;;5070519;28;19931;-80
2024/01/15 07:38:54;;;;;;;;;;;-0.10;99.90;;;;;;5066216;28;19948;-80
2024/01/15 07:41:21;;;;;;;;;;;-0.10;99.90;;;;;;5068276;28;19933;-81
2024/01/15 07:43:47;;;;;;;;;;;0.00;99.90;;;;;;5088956;28;20399;-80
2024/01/15 07:46:14;;;;;;;;;;;0.00;99.90;;;;;;5057512;28;20374;-84
2024/01/15 07:48:41;;;;;;;;;;;0.00;99.90;;;;;;5055967;28;19928;-84
2024/01/15 07:51:09;;;;;;;;;;;0.00;99.90;;;;;;5067624;28;19924;-85
2024/01/15 07:53:35;;;;;;;;;;;0.00;99.90;;;;;;5066998;28;19929;-85
2024/01/15 07:56:02;;;;;;;;;;;0.00;99.90;;;;;;5085828;28;19928;-85
2024/01/15 07:58:29;;;;;;;;;;;0.10;99.90;;;;;;5053619;28;19958;-85
2024/01/15 08:00:56;;;;;;;;;;;0.10;99.90;;;;;;5056698;28;19928;-85
2024/01/15 08:03:23;;;;;;;;;;;0.10;99.90;;;;;;5071796;28;20142;-83
2024/01/15 08:05:52;;;;;;;;;;;0.10;99.90;;;;;;5072444;28;19929;-84
2024/01/15 08:08:21;;;;;;;;;;;0.10;99.90;;;;;;5051662;28;19960;-84
2024/01/15 08:10:48;;;;;;;;;;;0.10;99.90;;;;;;5063854;28;19928;-85
2024/01/15 08:13:15;;;;;;;;;;;0.10;99.90;;;;;;5076066;28;19928;-86
2024/01/15 08:15:41;;;;;;;;;;;0.00;99.90;;;;;;5069133;28;19929;-85
2024/01/15 08:18:09;;;;;;;;;;;0.00;99.90;;;;;;5071070;28;20601;-87
2024/01/15 08:20:36;;;;;;;;;;;-0.10;99.90;;;;;;5071555;28;20365;-84
2024/01/15 08:23:03;;;;;;;;;;;-0.10;99.90;;;;;;5070269;28;19932;-84
2024/01/15 08:25:30;;;;;;;;;;;-0.20;99.90;;;;;;5072253;28;20011;-84
2024/01/15 08:27:57;;;;;;;;;;;-0.20;99.90;;;;;;5081218;28;19933;-81
2024/01/15 08:30:27;;;;;;;;;;;-0.20;99.90;;;;;;5073667;28;20397;-89
2024/01/15 08:32:54;;;;;;;;;;;-0.20;99.90;;;;;;5102111;28;19932;-87
2024/01/15 08:35:25;;;;;;;;;;;-0.20;99.90;;;;;;5066104;28;19932;-82
2024/01/15 08:37:52;;;;;;;;;;;-0.20;99.90;;;;;;5078637;28;19928;-85
2024/01/15 08:40:19;;;;;;;;;;;-0.30;99.90;;;;;;5056532;28;19960;-87
2024/01/15 08:42:46;;;;;;;;;;;-0.30;99.90;;;;;;5076293;28;19934;-88
2024/01/15 08:45:13;;;;;;;;;;;-0.30;99.90;;;;;;5073998;28;20363;-85
2024/01/15 08:47:40;;;;;;;;;;;-0.30;99.90;;;;;;5072977;28;20022;-87
2024/01/15 08:50:10;;;;;;;;;;;-0.30;99.90;;;;;;5058630;28;20043;-91
2024/01/15 08:52:37;;;;;;;;;;;-0.30;99.90;;;;;;5081698;28;19933;-89
2024/01/15 08:55:04;;;;;;;;;;;-0.40;99.90;;;;;;5060626;28;19929;-88
2024/01/15 08:57:31;;;;;;;;;;;-0.30;99.90;;;;;;5078505;28;19974;-85
2024/01/15 08:59:59;;;;;;;;;;;-0.40;99.90;;;;;;5073838;28;19928;-87
2024/01/15 09:02:26;;;;;;;;;;;-0.40;99.90;;;;;;5078780;28;19929;-86
2024/01/15 09:04:53;;;;;;;;;;;-0.40;99.90;;;;;;5055775;28;19924;-88
2024/01/15 09:07:20;;;;;;;;;;;-0.40;99.90;;;;;;5063891;28;19931;-84
2024/01/15 09:09:47;;;;;;;;;;;-0.50;99.90;;;;;;5076152;28;20045;-86
2024/01/15 09:12:15;;;;;;;;;;;-0.40;99.90;;;;;;5081080;28;19981;-86
2024/01/15 09:14:42;;;;;;;;;;;-0.50;99.90;;;;;;5068817;28;19932;-85
2024/01/15 09:17:09;;;;;;;;;;;-0.50;99.90;;;;;;5075416;28;19924;-87
2024/01/15 09:19:36;;;;;;;;;;;-0.50;99.90;;;;;;5060910;28;21569;-83
2024/01/15 09:22:04;;;;;;;;;;;-0.50;99.90;;;;;;5073502;28;19925;-86
2024/01/15 09:24:30;;;;;;;;;;;-0.50;99.90;;;;;;5070916;28;19999;-88
2024/01/15 09:26:57;;;;;;;;;;;-0.50;99.90;;;;;;5103013;28;20004;-83
2024/01/15 09:29:25;;;;;;;;;;;-0.50;99.90;;;;;;5079709;28;20011;-85
2024/01/15 09:31:52;;;;;;;;;;;-0.60;99.90;;;;;;5065604;28;19936;-87
2024/01/15 09:34:19;;;;;;;;;;;-0.60;99.90;;;;;;5050600;28;19940;-85
2024/01/15 09:36:47;;;;;;;;;;;-0.60;99.90;;;;;;5073306;28;19932;-86
2024/01/15 09:39:15;;;;;;;;;;;-0.60;99.90;;;;;;5073415;28;19924;-89
2024/01/15 09:41:43;;;;;;;;;;;-0.60;99.90;;;;;;5058198;28;20012;-85
2024/01/15 09:44:10;;;;;;;;;;;-0.60;99.90;;;;;;5078266;28;20442;-85
2024/01/15 09:46:38;;;;;;;;;;;-0.60;99.90;;;;;;5069677;28;20394;-86
2024/01/15 09:49:05;;;;;;;;;;;-0.60;99.90;;;;;;5057992;28;19934;-83
2024/01/15 09:51:32;;;;;;;;;;;-0.70;99.90;;;;;;5060660;28;20351;-85
2024/01/15 09:53:59;;;;;;;;;;;-0.70;99.90;;;;;;5061234;28;20378;-82
2024/01/15 09:56:27;;;;;;;;;;;-0.70;99.90;;;;;;5055445;28;20023;-85
2024/01/15 09:58:54;;;;;;;;;;;-0.70;99.90;;;;;;5052614;28;19931;-83
2024/01/15 10:01:22;;;;;;;;;;;-0.70;99.90;;;;;;5051591;28;19932;-83
2024/01/15 10:03:49;;;;;;;;;;;-0.60;99.90;;;;;;5063380;28;19933;-83
2024/01/15 10:06:19;;;;;;;;;;;-0.60;99.90;;;;;;5066162;28;19975;-79
2024/01/15 10:08:49;;;;;;;;;;;-0.60;99.90;;;;;;5055725;28;20381;-78
2024/01/15 10:11:16;;;;;;;;;;;-0.70;99.90;;;;;;5076259;28;20436;-79
2024/01/15 10:13:44;;;;;;;;;;;-0.70;99.90;;;;;;5060629;28;19997;-79
2024/01/15 10:16:12;;;;;;;;;;;-0.80;99.90;;;;;;5075672;28;20454;-80
2024/01/15 10:18:39;;;;;;;;;;;-0.80;99.90;;;;;;5063688;28;19979;-80
2024/01/15 10:21:07;;;;;;;;;;;-0.90;99.90;;;;;;5070910;28;19932;-79
2024/01/15 10:23:34;;;;;;;;;;;-0.90;99.90;;;;;;5079065;28;19929;-80
2024/01/15 10:26:00;;;;;;;;;;;-0.90;99.90;;;;;;5051199;28;20355;-79
2024/01/15 10:28:29;;;;;;;;;;;-0.90;99.90;;;;;;5073718;28;19962;-80
2024/01/15 10:30:57;;;;;;;;;;;-0.90;99.90;;;;;;5069120;28;20324;-81
2024/01/15 10:33:25;;;;;;;;;;;-1.00;99.90;;;;;;5049023;28;20410;-78
2024/01/15 10:35:59;;;;;;;;;;;-1.00;99.90;;;;;;5072892;28;19928;-80
2024/01/15 10:38:26;;;;;;;;;;;-1.00;99.90;;;;;;5051515;28;19960;-79
2024/01/15 10:40:54;;;;;;;;;;;-1.00;99.90;;;;;;5071630;28;20013;-80
2024/01/15 10:43:22;;;;;;;;;;;-1.10;99.90;;;;;;5054899;28;20454;-83
2024/01/15 10:45:52;;;;;;;;;;;-1.10;99.90;;;;;;5081484;28;20006;-78
2024/01/15 10:48:19;;;;;;;;;;;-1.10;99.90;;;;;;5053821;28;20381;-81
2024/01/15 10:50:46;;;;;;;;;;;-1.10;99.90;;;;;;5070387;28;19928;-82
2024/01/15 10:53:16;;;;;;;;;;;-1.00;99.90;;;;;;5053798;28;19935;-81
2024/01/15 10:55:43;;;;;;;;;;;-1.10;99.90;;;;;;5075903;28;19993;-80
2024/01/15 10:58:10;;;;;;;;;;;-1.10;99.90;;;;;;5073734;28;20389;-80
2024/01/15 11:00:37;;;;;;;;;;;-1.10;99.90;;;;;;5073897;28;19928;-80
2024/01/15 11:03:05;;;;;;;;;;;-1.20;99.90;;;;;;5065227;28;20851;-81
2024/01/15 11:05:42;;;;;;;;;;;-1.20;99.90;;;;;;5068494;28;20353;-80
2024/01/15 11:08:09;;;;;;;;;;;-1.20;99.90;;;;;;5070942;28;19928;-79
2024/01/15 11:10:42;;;;;;;;;;;-1.20;99.90;;;;;;5061792;28;19935;-80
2024/01/15 11:13:10;;;;;;;;;;;-1.20;99.90;;;;;;5068067;28;19935;-82
2024/01/15 11:15:57;;;;;;;;;;;-1.10;99.90;;;;;;5064552;28;19932;-81
2024/01/15 11:18:26;;;;;;;;;;;-1.20;99.90;;;;;;5076718;28;19982;-81
2024/01/15 11:21:12;;;;;;;;;;;-1.20;99.90;;;;;;5054317;28;20431;-81
2024/01/15 11:23:58;;;;;;;;;;;-1.20;99.90;;;;;;5061520;28;20002;-81
2024/01/15 11:26:29;;;;;;;;;;;-1.30;99.90;;;;;;5042664;28;19929;-82
2024/01/15 11:28:56;;;;;;;;;;;-1.30;99.90;;;;;;5067893;28;19958;-81
2024/01/15 11:31:27;;;;;;;;;;;-1.30;99.90;;;;;;5071165;28;19940;-81
2024/01/15 11:33:55;;;;;;;;;;;-1.40;99.90;;;;;;5073571;28;19928;-82
2024/01/15 11:36:40;;;;;;;;;;;-1.40;99.90;;;;;;5066257;28;19928;-81
2024/01/15 11:39:26;;;;;;;;;;;-1.40;99.90;;;;;;5075372;28;19932;-80
2024/01/15 11:42:01;;;;;;;;;;;-1.40;99.90;;;;;;5068133;28;20377;-81
2024/01/15 11:44:28;;;;;;;;;;;-1.30;99.90;;;;;;5053921;28;19936;-84
2024/01/15 11:47:00;;;;;;;;;;;-1.40;99.90;;;;;;5065432;28;20005;-84
2024/01/15 11:49:33;;;;;;;;;;;-1.50;99.90;;;;;;5069489;28;19971;-83
2024/01/15 11:52:01;;;;;;;;;;;-1.50;99.90;;;;;;5073658;28;19925;-83
2024/01/15 11:54:31;;;;;;;;;;;-1.60;99.90;;;;;;5068484;28;19936;-84
2024/01/15 11:57:00;;;;;;;;;;;-1.60;99.90;;;;;;5067592;28;19935;-84
2024/01/15 11:59:27;;;;;;;;;;;-1.50;99.90;;;;;;5063937;28;20321;-84
2024/01/15 12:01:54;;;;;;;;;;;-1.60;99.90;;;;;;5054357;28;19972;-85
2024/01/15 12:04:21;;;;;;;;;;;-1.60;99.90;;;;;;5059527;28;21911;-82
2024/01/15 12:06:48;;;;;;;;;;;-1.70;99.90;;;;;;5047450;28;19936;-83
2024/01/15 12:09:18;;;;;;;;;;;-1.80;99.90;;;;;;5072986;28;19932;-80
2024/01/15 12:11:49;;;;;;;;;;;-1.80;99.90;;;;;;5074702;28;20389;-81
2024/01/15 12:14:16;;;;;;;;;;;-1.80;99.90;;;;;;5071917;28;20595;-81
2024/01/15 12:16:43;;;;;;;;;;;-1.90;99.90;;;;;;5064990;28;19928;-81
2024/01/15 12:19:10;;;;;;;;;;;-1.80;99.90;;;;;;5052757;28;20516;-82
2024/01/15 12:21:39;;;;;;;;;;;-1.80;99.90;;;;;;5032122;28;20433;-83
2024/01/15 12:24:07;;;;;;;;;;;-1.80;99.90;;;;;;5070104;28;20064;-83
2024/01/15 12:26:34;;;;;;;;;;;-1.90;99.90;;;;;;5058532;28;19928;-83
2024/01/15 12:29:01;;;;;;;;;;;-1.90;99.90;;;;;;5090951;28;20403;-80
2024/01/15 12:31:29;;;;;;;;;;;-2.00;99.90;;;;;;5070518;28;19955;-77
2024/01/15 12:33:56;;;;;;;;;;;-2.00;99.90;;;;;;5070144;28;19928;-80
2024/01/15 12:36:27;;;;;;;;;;;-2.00;99.90;;;;;;5060171;28;20122;-82
2024/01/15 12:38:58;;;;;;;;;;;-2.10;99.90;;;;;;5049965;28;19929;-79
2024/01/15 12:41:25;;;;;;;;;;;-2.10;99.90;;;;;;5069887;28;20328;-79
2024/01/15 12:43:52;;;;;;;;;;;-2.10;99.90;;;;;;5081338;28;20370;-78
2024/01/15 12:46:19;;;;;;;;;;;-2.20;99.90;;;;;;5068136;28;20606;-79
2024/01/15 12:48:46;;;;;;;;;;;-2.20;99.90;;;;;;5073186;28;19931;-78
2024/01/15 12:51:13;;;;;;;;;;;-2.30;99.90;;;;;;5078634;28;19977;-80
2024/01/15 12:53:40;;;;;;;;;;;-2.30;99.90;;;;;;5070272;28;19928;-79
2024/01/15 12:56:06;;;;;;;;;;;-2.30;99.90;;;;;;5084302;28;20154;-81
2024/01/15 12:58:33;;;;;;;;;;;-2.40;99.90;;;;;;5066265;28;20635;-79
2024/01/15 13:01:01;;;;;;;;;;;-2.40;99.90;;;;;;5071129;28;19924;-79
2024/01/15 13:03:28;;;;;;;;;;;-2.50;99.90;;;;;;5053580;28;20480;-78
2024/01/15 13:05:55;;;;;;;;;;;-2.50;99.90;;;;;;5052685;28;19929;-79
2024/01/15 13:08:25;;;;;;;;;;;-2.50;99.90;;;;;;5062000;28;20471;-82
2024/01/15 13:10:52;;;;;;;;;;;-2.60;99.90;;;;;;5067579;28;19934;-81
2024/01/15 13:13:19;;;;;;;;;;;-2.60;99.90;;;;;;5074550;28;19924;-78
2024/01/15 13:15:46;;;;;;;;;;;-2.70;99.90;;;;;;5072326;28;19940;-80
2024/01/15 13:18:13;;;;;;;;;;;-2.70;99.90;;;;;;5072670;28;20373;-79
2024/01/15 13:20:40;;;;;;;;;;;-2.80;99.90;;;;;;5051277;28;19932;-79
2024/01/15 13:23:06;;;;;;;;;;;-2.80;99.90;;;;;;5077358;28;19933;-81
2024/01/15 13:25:35;;;;;;;;;;;-2.80;99.90;;;;;;5068861;28;20036;-79
2024/01/15 13:28:02;;;;;;;;;;;-2.70;99.90;;;;;;5071749;28;19925;-79
2024/01/15 13:30:30;;;;;;;;;;;-2.70;99.90;;;;;;5082317;28;19935;-83
2024/01/15 13:32:57;;;;;;;;;;;-2.70;99.90;;;;;;5070237;28;20023;-80
2024/01/15 13:35:24;;;;;;;;;;;-2.70;99.90;;;;;;5049915;28;19951;-80
2024/01/15 13:37:52;;;;;;;;;;;-2.80;99.90;;;;;;5053468;28;19955;-81
2024/01/15 13:40:19;;;;;;;;;;;-2.80;99.90;;;;;;5083140;28;20023;-79
2024/01/15 13:42:47;;;;;;;;;;;-2.90;99.90;;;;;;5073712;28;20015;-80
2024/01/15 13:45:14;;;;;;;;;;;-2.90;99.90;;;;;;5067784;28;19933;-80
2024/01/15 13:47:43;;;;;;;;;;;-3.00;99.90;;;;;;5084298;28;19981;-80
2024/01/15 13:50:10;;;;;;;;;;;-2.90;99.90;;;;;;5068775;28;19924;-79
2024/01/15 13:52:37;;;;;;;;;;;-3.00;99.90;;;;;;5084605;28;19978;-78
2024/01/15 13:55:06;;;;;;;;;;;-3.00;99.90;;;;;;5048728;28;19928;-81
2024/01/15 13:57:33;;;;;;;;;;;-2.90;99.90;;;;;;5065194;28;19929;-81
2024/01/15 14:00:00;;;;;;;;;;;-3.00;99.90;;;;;;5073361;28;19936;-80
2024/01/15 14:02:26;;;;;;;;;;;-2.90;99.90;;;;;;5075565;28;19932;-81
2024/01/15 14:04:53;;;;;;;;;;;-2.90;99.90;;;;;;5056637;28;19962;-80
2024/01/15 14:07:21;;;;;;;;;;;-3.10;99.90;;;;;;5074017;28;20346;-82
2024/01/15 14:09:48;;;;;;;;;;;-3.10;99.90;;;;;;5058867;28;19928;-81
2024/01/15 14:12:15;;;;;;;;;;;-3.10;99.90;;;;;;5053213;28;20431;-81
2024/01/15 14:14:42;;;;;;;;;;;-3.10;99.90;;;;;;5050981;28;19924;-80
2024/01/15 14:17:09;;;;;;;;;;;-3.10;99.90;;;;;;5068954;28;19929;-80
2024/01/15 14:19:36;;;;;;;;;;;-3.20;99.90;;;;;;5066972;28;19925;-81
2024/01/15 14:22:03;;;;;;;;;;;-3.10;99.90;;;;;;5065454;28;20374;-81